createdAt,value
2018-07-25T00:01:37.420Z,43.00
2018-07-25T00:04:05.647Z,43.50
2018-07-25T00:06:33.715Z,43.60
2018-07-25T00:09:01.780Z,44.80
2018-07-25T00:11:29.879Z,45.20
2018-07-25T00:13:57.956Z,45.80
2018-07-25T00:16:26.020Z,45.20
2018-07-25T00:18:54.115Z,45.80
2018-07-25T00:21:22.263Z,46.00
2018-07-25T00:23:50.307Z,46.20
2018-07-25T00:26:18.460Z,45.90
2018-07-25T00:28:46.533Z,46.30
2018-07-25T00:31:14.674Z,46.50
2018-07-25T00:33:42.875Z,47.40
2018-07-25T00:36:11.012Z,48.10
2018-07-25T00:38:39.103Z,48.20
2018-07-25T00:41:07.239Z,48.00
2018-07-25T00:43:35.326Z,48.10
2018-07-25T00:46:03.443Z,48.80
2018-07-25T00:48:31.520Z,49.20
2018-07-25T00:50:59.605Z,49.30
2018-07-25T00:53:27.707Z,50.30
2018-07-25T00:55:55.804Z,51.50
2018-07-25T00:58:23.922Z,51.00
2018-07-25T01:00:52.027Z,50.80
2018-07-25T01:05:54.827Z,50.90
2018-07-25T01:08:22.916Z,50.70
2018-07-25T01:10:50.988Z,51.10
2018-07-25T01:13:19.129Z,51.00
2018-07-25T01:15:47.206Z,51.60
2018-07-25T01:18:15.284Z,51.90
2018-07-25T01:20:43.899Z,52.70
2018-07-25T01:23:11.980Z,52.70
2018-07-25T01:28:07.973Z,53.80
2018-07-25T01:30:36.079Z,54.60
2018-07-25T01:33:04.175Z,54.70
2018-07-25T01:35:32.276Z,55.40
2018-07-25T01:38:00.319Z,55.00
2018-07-25T01:40:28.424Z,55.80
2018-07-25T01:42:56.507Z,55.50
2018-07-25T01:45:24.586Z,55.10
2018-07-25T01:47:52.680Z,55.10
2018-07-25T01:50:20.760Z,55.80
2018-07-25T01:52:48.815Z,56.00
2018-07-25T01:55:16.889Z,55.30
2018-07-25T01:57:44.967Z,55.80
2018-07-25T02:02:40.919Z,56.50
2018-07-25T02:05:08.991Z,56.70
2018-07-25T02:07:37.055Z,57.30
2018-07-25T02:10:05.832Z,57.20
2018-07-25T02:12:34.205Z,58.30
2018-07-25T02:15:02.267Z,58.20
2018-07-25T02:17:30.362Z,57.90
2018-07-25T02:19:58.416Z,58.60
2018-07-25T02:22:26.490Z,59.10
2018-07-25T02:24:54.579Z,59.20
2018-07-25T02:27:22.648Z,59.20
2018-07-25T02:29:50.795Z,59.80
2018-07-25T02:32:18.888Z,59.70
2018-07-25T02:34:46.955Z,60.00
2018-07-25T02:37:15.013Z,60.50
2018-07-25T02:39:43.388Z,60.70
2018-07-25T02:42:11.462Z,61.10
2018-07-25T02:44:39.535Z,60.70
2018-07-25T02:47:07.618Z,60.90
2018-07-25T02:49:35.671Z,61.60
2018-07-25T02:52:03.783Z,62.00
2018-07-25T02:54:31.856Z,62.10
2018-07-25T02:56:59.988Z,62.60
2018-07-25T02:59:28.036Z,62.60
2018-07-25T03:01:56.123Z,63.20
2018-07-25T03:04:24.192Z,62.40
2018-07-25T03:06:52.311Z,63.00
2018-07-25T03:09:20.378Z,63.10
2018-07-25T03:11:48.455Z,63.60
2018-07-25T03:14:16.552Z,64.30
2018-07-25T03:16:44.660Z,64.50
2018-07-25T03:19:12.739Z,64.30
2018-07-25T03:21:40.811Z,64.60
2018-07-25T03:24:08.893Z,64.00
2018-07-25T03:26:36.982Z,63.30
2018-07-25T03:29:05.095Z,63.80
2018-07-25T03:31:33.287Z,63.80
2018-07-25T03:34:01.272Z,64.00
2018-07-25T03:36:29.334Z,64.00
2018-07-25T03:38:57.408Z,64.40
2018-07-25T03:41:25.503Z,65.10
2018-07-25T03:43:53.586Z,63.90
2018-07-25T03:46:21.666Z,63.90
2018-07-25T03:48:49.739Z,63.30
2018-07-25T03:51:17.816Z,63.50
2018-07-25T03:53:45.982Z,64.30
2018-07-25T03:56:14.063Z,65.10
2018-07-25T03:58:42.152Z,64.90
2018-07-25T04:01:10.232Z,64.90
2018-07-25T04:03:38.287Z,64.90
2018-07-25T04:06:06.376Z,64.50
2018-07-25T04:08:34.480Z,64.80
2018-07-25T04:11:02.546Z,64.70
2018-07-25T04:13:30.641Z,64.10
2018-07-25T04:15:58.752Z,64.90
2018-07-25T04:18:26.820Z,64.40
2018-07-25T04:20:54.923Z,64.00
2018-07-25T04:23:23.135Z,65.00
2018-07-25T04:25:51.249Z,63.70
2018-07-25T04:28:19.415Z,62.90
2018-07-25T04:30:47.525Z,60.90
2018-07-25T04:33:15.610Z,60.20
2018-07-25T04:35:43.715Z,59.60
2018-07-25T04:38:11.827Z,61.10
2018-07-25T04:40:39.912Z,60.20
2018-07-25T04:43:07.996Z,58.10
2018-07-25T04:45:36.064Z,58.30
2018-07-25T04:48:04.355Z,56.90
2018-07-25T04:50:32.472Z,56.30
2018-07-25T04:53:00.536Z,55.00
2018-07-25T04:55:28.589Z,54.70
2018-07-25T04:57:56.661Z,53.50
2018-07-25T05:00:24.732Z,53.30
2018-07-25T05:02:52.851Z,52.60
2018-07-25T05:05:20.927Z,51.90
2018-07-25T05:07:49.008Z,50.80
2018-07-25T05:10:17.097Z,48.90
2018-07-25T05:12:45.187Z,49.30
2018-07-25T05:15:13.271Z,47.90
2018-07-25T05:17:41.346Z,48.20
2018-07-25T05:20:09.409Z,46.00
2018-07-25T05:22:37.475Z,47.80
2018-07-25T05:25:05.563Z,45.20
2018-07-25T05:27:33.635Z,45.10
2018-07-25T05:30:01.750Z,42.90
2018-07-25T05:32:29.979Z,41.70
2018-07-25T05:34:58.036Z,41.90
2018-07-25T05:37:26.094Z,40.90
2018-07-25T05:39:54.200Z,39.60
2018-07-25T05:42:22.247Z,38.20
2018-07-25T05:44:50.316Z,36.10
2018-07-25T05:47:18.412Z,35.90
2018-07-25T05:49:46.463Z,32.40
2018-07-25T05:52:14.527Z,32.50
2018-07-25T05:54:42.602Z,30.00
2018-07-25T05:57:10.663Z,29.50
2018-07-25T05:59:38.765Z,28.00
2018-07-25T06:02:06.880Z,28.40
2018-07-25T06:04:34.982Z,25.50
2018-07-25T06:07:03.051Z,26.30
2018-07-25T06:09:31.150Z,25.60
2018-07-25T06:11:59.255Z,27.00
2018-07-25T06:14:27.319Z,26.60
2018-07-25T06:16:55.492Z,24.50
2018-07-25T06:19:23.636Z,24.90
2018-07-25T06:21:51.691Z,22.70
2018-07-25T06:24:19.803Z,21.90
2018-07-25T06:26:47.876Z,22.00
2018-07-25T06:29:15.973Z,23.00
2018-07-25T06:31:44.031Z,25.00
2018-07-25T06:34:12.100Z,25.20
2018-07-25T06:36:40.199Z,24.40
2018-07-25T06:39:10.311Z,23.30
2018-07-25T06:41:38.458Z,20.80
2018-07-25T06:44:06.624Z,21.60
2018-07-25T06:46:34.695Z,21.60
2018-07-25T06:49:02.814Z,21.50
2018-07-25T06:51:30.879Z,21.50
2018-07-25T06:53:58.952Z,22.40
2018-07-25T06:56:27.015Z,18.30
2018-07-25T06:58:55.099Z,16.70
2018-07-25T07:01:23.162Z,14.30
2018-07-25T07:03:51.239Z,12.90
2018-07-25T07:06:19.347Z,11.80
2018-07-25T07:08:47.415Z,10.40
2018-07-25T07:11:15.480Z,9.40
2018-07-25T07:13:43.528Z,8.40
2018-07-25T07:16:11.600Z,8.80
2018-07-25T07:18:39.659Z,8.10
2018-07-25T07:21:07.727Z,6.70
2018-07-25T07:23:35.815Z,5.90
2018-07-25T07:26:03.884Z,4.80
2018-07-25T07:28:31.948Z,3.90
2018-07-25T07:31:00.043Z,4.30
2018-07-25T07:33:28.154Z,4.20
2018-07-25T07:35:56.215Z,4.70
2018-07-25T07:38:24.311Z,5.00
2018-07-25T07:40:52.384Z,5.40
2018-07-25T07:43:20.494Z,5.60
2018-07-25T07:45:48.586Z,7.40
2018-07-25T07:48:16.668Z,8.40
2018-07-25T07:50:44.726Z,9.30
2018-07-25T07:53:12.812Z,10.70
2018-07-25T07:55:40.907Z,9.60
2018-07-25T07:58:09.051Z,8.80
2018-07-25T08:03:05.096Z,7.20
2018-07-25T08:05:33.290Z,8.30
2018-07-25T08:08:01.339Z,8.40
2018-07-25T08:10:29.438Z,7.70
2018-07-25T08:12:57.532Z,7.30
2018-07-25T08:15:25.599Z,7.50
2018-07-25T08:17:53.702Z,7.30
2018-07-25T08:20:21.779Z,6.50
2018-07-25T08:22:49.866Z,6.40
2018-07-25T08:25:17.964Z,6.60
2018-07-25T08:27:46.026Z,6.70
2018-07-25T08:30:14.105Z,5.40
2018-07-25T08:32:42.215Z,3.30
2018-07-25T08:35:10.291Z,2.90
2018-07-25T08:37:38.417Z,1.80
2018-07-25T08:40:06.501Z,1.40
2018-07-25T08:42:34.596Z,1.00
2018-07-25T08:45:02.676Z,1.00
2018-07-25T08:47:30.739Z,1.00
2018-07-25T08:49:58.909Z,1.00
2018-07-25T08:52:27.060Z,1.00
2018-07-25T08:54:55.067Z,1.00
2018-07-25T08:57:23.127Z,1.00
2018-07-25T08:59:51.194Z,1.00
2018-07-25T09:02:19.237Z,1.00
2018-07-25T09:04:47.291Z,1.00
2018-07-25T09:07:15.382Z,1.00
2018-07-25T09:09:43.502Z,1.00
2018-07-25T09:12:11.548Z,1.00
2018-07-25T09:14:39.590Z,1.00
2018-07-25T09:17:07.981Z,1.00
2018-07-25T09:19:36.036Z,1.00
2018-07-25T09:22:04.104Z,1.00
2018-07-25T09:24:32.200Z,1.00
2018-07-25T09:27:00.255Z,1.10
2018-07-25T09:29:28.319Z,1.00
2018-07-25T09:31:56.392Z,1.80
2018-07-25T09:34:24.583Z,2.80
2018-07-25T09:36:52.585Z,3.20
2018-07-25T09:39:20.767Z,1.50
2018-07-25T09:41:48.880Z,1.60
2018-07-25T09:44:16.970Z,3.10
2018-07-25T09:46:45.082Z,3.00
2018-07-25T09:49:13.167Z,3.10
2018-07-25T09:51:41.249Z,2.30
2018-07-25T09:54:09.324Z,1.40
2018-07-25T09:56:37.456Z,1.00
2018-07-25T09:59:05.607Z,1.00
2018-07-25T10:01:33.602Z,1.00
2018-07-25T10:04:01.776Z,1.00
2018-07-25T10:06:29.869Z,1.00
2018-07-25T10:08:57.944Z,1.00
2018-07-25T10:11:26.075Z,1.00
2018-07-25T10:13:55.222Z,1.00
2018-07-25T10:16:23.308Z,1.00
2018-07-25T10:18:51.521Z,1.00
2018-07-25T10:21:19.616Z,1.00
2018-07-25T10:23:47.759Z,1.00
2018-07-25T10:26:15.850Z,1.00
2018-07-25T10:28:43.947Z,1.00
2018-07-25T10:31:12.014Z,1.00
2018-07-25T10:33:40.092Z,1.00
2018-07-25T10:36:08.214Z,1.00
2018-07-25T10:38:36.300Z,1.00
2018-07-25T10:41:04.395Z,1.00
2018-07-25T10:43:32.476Z,1.00
2018-07-25T10:46:00.538Z,1.00
2018-07-25T10:48:28.667Z,1.00
2018-07-25T10:50:56.775Z,1.00
2018-07-25T10:53:24.847Z,1.00
2018-07-25T10:55:52.981Z,1.00
2018-07-25T10:58:21.029Z,1.00
2018-07-25T11:00:49.199Z,1.00
2018-07-25T11:03:17.302Z,1.00
2018-07-25T11:05:45.384Z,1.00
2018-07-25T11:08:13.523Z,1.00
2018-07-25T11:10:41.609Z,1.00
2018-07-25T11:13:09.732Z,1.00
2018-07-25T11:15:37.814Z,1.00
2018-07-25T11:18:05.887Z,1.00
2018-07-25T11:20:33.967Z,1.00
2018-07-25T11:23:02.109Z,1.00
2018-07-25T11:25:30.147Z,1.00
2018-07-25T11:27:58.219Z,1.00
2018-07-25T11:30:26.312Z,1.00
2018-07-25T11:32:54.440Z,1.00
2018-07-25T11:35:22.520Z,1.00
2018-07-25T11:37:50.590Z,1.00
2018-07-25T11:40:18.675Z,1.00
2018-07-25T11:42:46.810Z,1.00
2018-07-25T11:45:14.848Z,1.00
2018-07-25T11:47:42.908Z,1.00
2018-07-25T11:50:11.090Z,1.00
2018-07-25T11:52:39.048Z,1.00
2018-07-25T11:55:07.169Z,1.00
2018-07-25T11:57:35.230Z,1.00
2018-07-25T12:00:03.279Z,1.00
2018-07-25T12:02:31.396Z,1.00
2018-07-25T12:04:59.467Z,1.00
2018-07-25T12:07:27.620Z,1.00
2018-07-25T12:09:55.643Z,1.00
2018-07-25T12:13:52.999Z,1.00
2018-07-25T12:16:21.080Z,1.00
2018-07-25T12:18:49.938Z,1.00
2018-07-25T12:21:18.109Z,1.00
2018-07-25T12:23:46.215Z,1.00
2018-07-25T12:26:14.296Z,1.00
2018-07-25T12:28:42.409Z,1.00
2018-07-25T12:31:10.486Z,1.00
2018-07-25T12:33:38.558Z,1.00
2018-07-25T12:36:06.757Z,1.00
2018-07-25T12:38:34.835Z,1.00
2018-07-25T12:41:02.916Z,1.00
2018-07-25T12:43:31.008Z,1.00
2018-07-25T12:45:59.061Z,1.00
2018-07-25T12:48:27.172Z,1.00
2018-07-25T12:50:55.231Z,1.00
2018-07-25T12:53:23.292Z,1.00
2018-07-25T12:55:51.371Z,1.00
2018-07-25T12:58:19.475Z,1.00
2018-07-25T13:00:47.571Z,1.00
2018-07-25T13:03:15.685Z,1.00
2018-07-25T13:05:43.796Z,1.00
2018-07-25T13:10:40.008Z,1.00
2018-07-25T13:13:07.999Z,1.00
2018-07-25T13:15:36.200Z,1.00
2018-07-25T13:18:04.322Z,1.00
2018-07-25T13:20:32.431Z,1.00
2018-07-25T13:23:00.637Z,1.00
2018-07-25T13:25:28.708Z,1.00
2018-07-25T13:27:56.771Z,1.00
2018-07-25T13:30:24.899Z,1.00
2018-07-25T13:32:53.013Z,1.00
2018-07-25T13:35:21.089Z,1.00
2018-07-25T13:37:49.167Z,1.00
2018-07-25T13:40:17.279Z,1.00
2018-07-25T13:42:45.394Z,1.00
2018-07-25T13:45:13.476Z,1.00
2018-07-25T13:47:41.595Z,1.00
2018-07-25T13:50:09.788Z,1.00
2018-07-25T13:52:37.903Z,1.00
2018-07-25T13:57:40.539Z,1.00
2018-07-25T14:00:09.875Z,1.00
2018-07-25T14:02:37.947Z,1.00
2018-07-25T14:05:06.108Z,1.00
2018-07-25T14:07:34.144Z,1.00
2018-07-25T14:10:02.284Z,1.00
2018-07-25T14:12:30.376Z,1.00
2018-07-25T14:14:58.462Z,1.00
2018-07-25T14:17:26.563Z,1.00
2018-07-25T14:19:54.635Z,1.00
2018-07-25T14:22:22.712Z,1.00
2018-07-25T14:24:50.808Z,1.00
2018-07-25T14:27:18.910Z,1.00
2018-07-25T14:29:46.983Z,1.00
2018-07-25T14:32:15.087Z,1.00
2018-07-25T14:34:43.271Z,1.00
2018-07-25T14:37:11.416Z,1.00
2018-07-25T14:39:39.583Z,1.00
2018-07-25T14:42:07.604Z,1.00
2018-07-25T14:44:35.734Z,1.00
2018-07-25T14:49:31.707Z,1.00
2018-07-25T14:51:59.775Z,1.00
2018-07-25T14:54:27.894Z,1.00
2018-07-25T14:56:55.970Z,1.00
2018-07-25T14:59:24.139Z,1.00
2018-07-25T15:01:53.258Z,1.00
2018-07-25T15:04:21.403Z,1.00
2018-07-25T15:06:49.531Z,1.00
2018-07-25T15:09:17.593Z,1.00
2018-07-25T15:11:45.698Z,1.00
2018-07-25T15:14:13.799Z,1.00
2018-07-25T15:16:41.899Z,1.00
2018-07-25T15:19:10.033Z,1.00
2018-07-25T15:21:38.135Z,1.00
2018-07-25T15:24:07.342Z,1.00
2018-07-25T15:26:35.411Z,1.00
2018-07-25T15:29:03.804Z,1.00
2018-07-25T15:31:32.391Z,1.00
2018-07-25T15:34:00.505Z,1.00
2018-07-25T15:36:39.171Z,2.00
2018-07-25T15:39:09.555Z,2.80
2018-07-25T15:41:37.958Z,3.70
2018-07-25T15:44:06.218Z,7.10
2018-07-25T15:46:34.341Z,8.70
2018-07-25T15:49:02.505Z,14.30
2018-07-25T15:51:30.673Z,28.30
2018-07-25T15:53:58.788Z,36.80
2018-07-25T15:56:27.013Z,50.80
2018-07-25T15:58:55.147Z,56.40
2018-07-25T16:01:23.306Z,62.20
2018-07-25T16:03:51.760Z,67.40
2018-07-25T16:06:20.080Z,65.10
2018-07-25T16:08:48.289Z,62.40
2018-07-25T16:11:16.463Z,62.10
2018-07-25T16:13:44.629Z,61.90
2018-07-25T16:16:12.820Z,61.70
2018-07-25T16:18:41.016Z,66.90
2018-07-25T16:21:09.013Z,62.20
2018-07-25T16:23:37.160Z,63.50
2018-07-25T16:26:05.649Z,59.70
2018-07-25T16:28:33.896Z,56.40
2018-07-25T16:31:02.149Z,59.10
2018-07-25T16:33:30.237Z,60.70
2018-07-25T16:35:58.369Z,57.70
2018-07-25T16:38:26.496Z,54.50
2018-07-25T16:40:54.589Z,51.00
2018-07-25T16:43:22.734Z,55.40
2018-07-25T16:45:50.808Z,58.80
2018-07-25T16:48:18.936Z,57.40
2018-07-25T16:50:47.082Z,53.20
2018-07-25T16:53:15.327Z,53.20
2018-07-25T16:55:43.400Z,50.10
2018-07-25T16:58:11.500Z,49.40
2018-07-25T17:00:39.618Z,47.10
2018-07-25T17:03:07.693Z,43.10
2018-07-25T17:05:35.800Z,42.60
2018-07-25T17:08:04.009Z,47.00
2018-07-25T17:10:32.091Z,43.60
2018-07-25T17:13:00.175Z,42.80
2018-07-25T17:15:28.407Z,39.70
2018-07-25T17:17:56.491Z,41.40
2018-07-25T17:20:24.783Z,41.80
2018-07-25T17:22:53.147Z,41.60
2018-07-25T17:25:21.223Z,39.00
2018-07-25T17:27:49.391Z,37.30
2018-07-25T17:30:17.471Z,38.00
2018-07-25T17:32:45.553Z,38.80
2018-07-25T17:35:13.686Z,38.50
2018-07-25T17:37:41.798Z,39.70
2018-07-25T17:40:09.937Z,40.90
2018-07-25T17:42:38.123Z,39.70
2018-07-25T17:45:08.631Z,39.90
2018-07-25T17:47:36.760Z,41.40
2018-07-25T17:50:05.919Z,44.90
2018-07-25T17:52:34.000Z,45.00
2018-07-25T17:55:02.107Z,47.00
2018-07-25T17:57:30.355Z,45.20
2018-07-25T17:59:58.431Z,42.50
2018-07-25T18:02:26.572Z,44.00
2018-07-25T18:04:54.851Z,47.10
2018-07-25T18:07:23.175Z,43.70
2018-07-25T18:09:51.284Z,40.90
2018-07-25T18:12:19.480Z,38.70
2018-07-25T18:14:47.583Z,42.40
2018-07-25T18:17:15.896Z,42.20
2018-07-25T18:19:43.995Z,36.70
2018-07-25T18:22:12.143Z,33.30
2018-07-25T18:24:41.130Z,34.30
2018-07-25T18:27:09.231Z,32.10
2018-07-25T18:29:37.301Z,31.90
2018-07-25T18:32:05.389Z,31.70
2018-07-25T18:34:33.520Z,30.80
2018-07-25T18:37:01.609Z,31.70
2018-07-25T18:39:29.732Z,29.70
2018-07-25T18:41:57.842Z,29.40
2018-07-25T18:44:26.348Z,28.40
2018-07-25T18:46:54.654Z,31.10
2018-07-25T18:49:29.311Z,31.80
2018-07-25T18:51:57.418Z,34.40
2018-07-25T18:54:25.483Z,33.10
2018-07-25T18:56:53.623Z,35.10
2018-07-25T18:59:21.717Z,37.00
2018-07-25T19:01:49.881Z,38.00
2018-07-25T19:04:18.042Z,37.70
2018-07-25T19:06:46.166Z,39.20
2018-07-25T19:09:15.863Z,39.70
2018-07-25T19:11:44.329Z,39.00
2018-07-25T19:14:17.997Z,39.90
2018-07-25T19:16:46.097Z,39.20
2018-07-25T19:19:14.190Z,40.80
2018-07-25T19:25:13.571Z,43.70
2018-07-25T19:27:41.755Z,43.10
2018-07-25T19:30:09.917Z,43.50
2018-07-25T19:32:37.906Z,44.60
2018-07-25T19:35:05.995Z,44.30
2018-07-25T19:37:34.109Z,44.20
2018-07-25T19:40:02.163Z,45.30
2018-07-25T19:42:30.267Z,46.40
2018-07-25T19:44:58.360Z,47.80
2018-07-25T19:47:26.423Z,49.50
2018-07-25T19:49:54.544Z,50.20
2018-07-25T19:52:22.720Z,52.30
2018-07-25T19:54:50.777Z,51.90
2018-07-25T19:57:18.823Z,51.60
2018-07-25T19:59:46.891Z,52.60
2018-07-25T20:02:15.020Z,53.00
2018-07-25T20:04:43.096Z,53.70
2018-07-25T20:07:11.147Z,54.80
2018-07-25T20:09:39.226Z,54.50
2018-07-25T20:12:07.310Z,55.50
2018-07-25T20:14:40.862Z,56.20
2018-07-25T20:17:08.945Z,56.10
2018-07-25T20:19:37.112Z,57.30
2018-07-25T20:22:05.160Z,57.60
2018-07-25T20:24:33.267Z,57.60
2018-07-25T20:27:01.339Z,57.80
2018-07-25T20:29:29.403Z,58.50
2018-07-25T20:31:59.094Z,58.40
2018-07-25T20:34:27.159Z,59.40
2018-07-25T20:36:55.223Z,60.10
2018-07-25T20:39:23.315Z,61.30
2018-07-25T20:41:51.448Z,63.20
2018-07-25T20:44:19.520Z,63.20
2018-07-25T20:46:47.612Z,62.80
2018-07-25T20:49:15.691Z,64.20
2018-07-25T20:51:43.782Z,66.40
2018-07-25T20:54:11.893Z,68.30
2018-07-25T20:56:40.000Z,70.00
2018-07-25T20:59:08.099Z,70.50
2018-07-25T21:01:36.186Z,70.80
2018-07-25T21:04:04.257Z,71.70
2018-07-25T21:06:32.343Z,72.80
2018-07-25T21:09:00.423Z,73.90
2018-07-25T21:11:28.497Z,74.70
2018-07-25T21:13:56.579Z,74.50
2018-07-25T21:16:24.655Z,75.50
2018-07-25T21:18:52.728Z,75.50
2018-07-25T21:21:20.852Z,75.90
2018-07-25T21:23:48.910Z,76.20
2018-07-25T21:26:17.011Z,76.80
2018-07-25T21:28:45.102Z,76.70
2018-07-25T21:31:13.207Z,76.60
2018-07-25T21:33:41.313Z,76.70
2018-07-25T21:36:09.392Z,76.90
2018-07-25T21:38:37.483Z,77.40
2018-07-25T21:41:05.575Z,77.40
2018-07-25T21:43:33.630Z,78.40
2018-07-25T21:46:01.717Z,78.70
2018-07-25T21:48:29.803Z,78.40
2018-07-25T21:50:57.933Z,78.60
2018-07-25T21:53:25.939Z,79.30
2018-07-25T21:55:54.003Z,80.10
2018-07-25T21:59:25.603Z,80.20
2018-07-25T22:01:53.713Z,81.10
2018-07-25T22:04:21.784Z,81.10
2018-07-25T22:06:49.857Z,81.10
2018-07-25T22:09:17.965Z,80.40
2018-07-25T22:11:46.076Z,79.60
2018-07-25T22:14:14.152Z,79.50
2018-07-25T22:16:42.267Z,79.00
2018-07-25T22:19:10.318Z,79.40
2018-07-25T22:21:38.390Z,79.60
2018-07-25T22:24:06.451Z,80.60
2018-07-25T22:26:34.563Z,80.40
2018-07-25T22:29:02.616Z,80.70
2018-07-25T22:31:30.684Z,81.10
2018-07-25T22:33:58.747Z,80.20
2018-07-25T22:36:26.806Z,81.10
2018-07-25T22:38:54.869Z,81.20
2018-07-25T22:41:22.951Z,80.90
2018-07-25T22:43:51.052Z,80.70
2018-07-25T22:46:19.266Z,81.40
2018-07-25T22:48:47.364Z,81.20
2018-07-25T22:51:15.447Z,81.40
2018-07-25T22:53:43.541Z,81.40
2018-07-25T22:56:11.605Z,81.40
2018-07-25T22:58:39.667Z,81.90
2018-07-25T23:01:07.754Z,82.00
2018-07-25T23:03:35.836Z,82.50
2018-07-25T23:06:03.907Z,82.40
2018-07-25T23:08:31.988Z,82.10
2018-07-25T23:11:00.072Z,81.70
2018-07-25T23:13:28.164Z,81.40
2018-07-25T23:15:56.318Z,81.20
2018-07-25T23:18:24.392Z,81.30
2018-07-25T23:20:52.462Z,81.80
2018-07-25T23:23:20.570Z,81.40
2018-07-25T23:25:48.628Z,80.90
2018-07-25T23:28:16.730Z,80.70
2018-07-25T23:33:12.731Z,81.20
2018-07-25T23:35:40.797Z,81.10
2018-07-25T23:38:08.872Z,81.60
2018-07-25T23:40:36.963Z,81.90
2018-07-25T23:43:05.007Z,82.30
2018-07-25T23:45:33.107Z,83.10
2018-07-25T23:48:01.171Z,83.20
2018-07-25T23:50:29.243Z,83.20
2018-07-25T23:52:57.355Z,82.90
2018-07-25T23:55:25.458Z,82.00
2018-07-25T23:57:53.543Z,81.90
